»·PEaware :: WAT528 KVNY-KSAC

WAT528 :: KVNY-KSAC

FLIGHT INFORMATION

Flight Status: Arrived
Operator:
Walker Air Transport
More flights by this operator :: More flights under this callsign
Pilot: Aleksandar D. (29171)
Aircraft: SOCATA TBM-900
(TBM9)
More flights by this aircraft type
Origin: KVNY Van Nuys
United States
Destination: KSAC Sacramento Executive
United States
More flights between these airports :: More routes between these airports
Route: CANOG3 GMN NURAY LIN
File this flight plan on PilotEdge
Remarks:
Altitude:
(Current/Filed)
24,000ft
Speed:
(Current/Filed)
310kts
Departed: 12-Feb-21 07:27 PM
Arrived: 12-Feb-21 08:58 PM
Distance/Time
Traveled:
296nm/1:31
Distance/Time
To Go:
Arrived

Flight Plot

Page will automatically refresh every two minutes.

Flight plan parsing failed; only flown route is shown


Map Options




Map Legend


Flown Route
Filed Route
Departure Airport
Arrival Airport
Navaid (VOR, NDB)
Fix

Horizontal Profiles

Position Reports

Time Latitude Longitude Heading Altitude Ground
Speed
12-Feb-21 19:01 34.200808 -118.487821 270 804ft 0kts
12-Feb-21 19:02 34.200808 -118.487821 270 804ft 0kts
12-Feb-21 19:03 34.200808 -118.487821 270 804ft 0kts
12-Feb-21 19:04 34.200808 -118.487821 270 804ft 0kts
12-Feb-21 19:05 34.200808 -118.487821 270 804ft 0kts
12-Feb-21 19:06 34.200808 -118.487821 270 804ft 0kts
12-Feb-21 19:07 34.200808 -118.487821 270 804ft 0kts
12-Feb-21 19:08 34.200808 -118.487821 270 804ft 0kts
12-Feb-21 19:09 34.200808 -118.487821 270 804ft 0kts
12-Feb-21 19:10 34.200808 -118.487821 270 804ft 0kts
12-Feb-21 19:11 34.200808 -118.487821 270 804ft 0kts
12-Feb-21 19:12 34.200808 -118.487821 270 804ft 0kts
12-Feb-21 19:13 34.200808 -118.487821 270 804ft 0kts
12-Feb-21 19:13 34.200808 -118.487821 270 804ft 0kts
12-Feb-21 19:14 34.200808 -118.487822 270 804ft 0kts
12-Feb-21 19:16 34.200808 -118.487822 270 804ft 0kts
12-Feb-21 19:16 34.200808 -118.487822 270 804ft 0kts
12-Feb-21 19:17 34.200808 -118.487822 270 804ft 0kts
12-Feb-21 19:18 34.200808 -118.487822 270 804ft 0kts
12-Feb-21 19:19 34.200824 -118.488445 301 804ft 7kts
12-Feb-21 19:20 34.205687 -118.488354 4 804ft 19kts
12-Feb-21 19:21 34.210557 -118.488396 356 804ft 14kts
12-Feb-21 19:22 34.215494 -118.488904 349 804ft 18kts
12-Feb-21 19:23 34.218646 -118.489468 353 804ft 0kts
12-Feb-21 19:24 34.218646 -118.489468 353 804ft 0kts
12-Feb-21 19:25 34.218851 -118.489607 299 804ft 8kts
12-Feb-21 19:26 34.210649 -118.490496 177 849ft 115kts
12-Feb-21 19:27 34.175207 -118.493173 224 2533ft 129kts
12-Feb-21 19:28 34.147220 -118.524794 225 4036ft 151kts
12-Feb-21 19:29 34.130670 -118.569036 271 5525ft 151kts
12-Feb-21 19:30 34.159378 -118.595521 349 7207ft 161kts
12-Feb-21 19:31 34.200567 -118.607269 343 9836ft 144kts
12-Feb-21 19:32 34.236854 -118.619812 341 12238ft 133kts
12-Feb-21 19:33 34.272473 -118.632572 340 14032ft 151kts
12-Feb-21 19:34 34.309689 -118.645917 339 16639ft 131kts
12-Feb-21 19:35 34.344999 -118.658667 338 18751ft 132kts
12-Feb-21 19:36 34.380853 -118.671602 338 20942ft 137kts
12-Feb-21 19:37 34.417825 -118.684956 338 23061ft 141kts
12-Feb-21 19:38 34.461088 -118.700691 338 24029ft 200kts
12-Feb-21 19:39 34.520547 -118.722224 339 23992ft 236kts
12-Feb-21 19:40 34.583078 -118.751547 334 23983ft 241kts
12-Feb-21 19:41 34.645448 -118.782479 334 23982ft 243kts
12-Feb-21 19:42 34.708155 -118.813631 334 23981ft 244kts
12-Feb-21 19:43 34.771372 -118.845103 334 24009ft 247kts
12-Feb-21 19:44 34.836462 -118.876219 335 24047ft 249kts
12-Feb-21 19:45 34.901864 -118.906219 335 24074ft 248kts
12-Feb-21 19:46 34.966625 -118.935958 335 24072ft 249kts
12-Feb-21 19:47 35.031726 -118.965919 335 24071ft 249kts
12-Feb-21 19:48 35.096926 -118.995958 335 24068ft 250kts
12-Feb-21 19:49 35.162267 -119.026136 335 24077ft 251kts
12-Feb-21 19:50 35.228257 -119.056645 335 24075ft 251kts
12-Feb-21 19:51 35.293893 -119.087065 335 24074ft 252kts
12-Feb-21 19:52 35.359342 -119.117434 335 24073ft 252kts
12-Feb-21 19:53 35.425070 -119.148003 335 24088ft 251kts
12-Feb-21 19:54 35.490593 -119.178500 335 24106ft 252kts
12-Feb-21 19:55 35.556672 -119.209305 335 24116ft 252kts
12-Feb-21 19:56 35.622583 -119.240148 335 24116ft 252kts
12-Feb-21 19:57 35.688464 -119.270991 335 24115ft 253kts
12-Feb-21 19:58 35.754556 -119.301995 335 24114ft 253kts
12-Feb-21 19:59 35.823131 -119.334217 334 24113ft 253kts
12-Feb-21 20:00 35.889643 -119.365520 334 24110ft 253kts
12-Feb-21 20:01 35.955412 -119.396545 334 24105ft 253kts
12-Feb-21 20:02 36.021387 -119.427698 334 24101ft 254kts
12-Feb-21 20:03 36.087417 -119.458954 334 24101ft 254kts
12-Feb-21 20:04 36.153743 -119.490413 334 24109ft 255kts
12-Feb-21 20:05 36.220388 -119.522071 334 24108ft 256kts
12-Feb-21 20:06 36.286826 -119.553686 334 24107ft 256kts
12-Feb-21 20:07 36.353560 -119.585501 334 24106ft 256kts
12-Feb-21 20:08 36.420078 -119.617272 334 24105ft 255kts
12-Feb-21 20:09 36.486415 -119.649014 334 24104ft 255kts
12-Feb-21 20:10 36.552994 -119.680934 333 24108ft 256kts
12-Feb-21 20:11 36.616652 -119.719267 322 24107ft 252kts
12-Feb-21 20:12 36.674441 -119.769168 322 24101ft 252kts
12-Feb-21 20:13 36.732121 -119.818925 322 24100ft 251kts
12-Feb-21 20:14 36.789800 -119.868764 322 24099ft 251kts
12-Feb-21 20:15 36.847179 -119.918438 322 24098ft 251kts
12-Feb-21 20:16 36.904848 -119.968456 322 24097ft 251kts
12-Feb-21 20:17 36.962295 -120.018336 321 24097ft 251kts
12-Feb-21 20:18 37.019781 -120.068407 321 24098ft 251kts
12-Feb-21 20:19 37.077435 -120.118707 321 24099ft 252kts
12-Feb-21 20:20 37.135039 -120.169046 321 24107ft 252kts
12-Feb-21 20:21 37.192765 -120.219584 321 24105ft 253kts
12-Feb-21 20:22 37.251549 -120.271167 321 23053ft 263kts
12-Feb-21 20:23 37.310993 -120.323425 321 21025ft 258kts
12-Feb-21 20:24 37.369254 -120.374728 321 19004ft 252kts
12-Feb-21 20:25 37.426533 -120.425273 322 16961ft 249kts
12-Feb-21 20:26 37.482719 -120.474934 322 16033ft 241kts
12-Feb-21 20:27 37.537745 -120.523648 322 16032ft 239kts
12-Feb-21 20:28 37.592279 -120.572033 322 16032ft 239kts
12-Feb-21 20:29 37.646738 -120.620432 322 15463ft 233kts
12-Feb-21 20:30 37.699432 -120.667363 321 14186ft 221kts
12-Feb-21 20:31 37.749575 -120.712108 321 12983ft 220kts
12-Feb-21 20:32 37.800453 -120.757563 321 11766ft 222kts
12-Feb-21 20:33 37.852194 -120.803924 322 10543ft 227kts
12-Feb-21 20:34 37.905397 -120.851632 324 9319ft 234kts
12-Feb-21 20:35 37.960214 -120.900835 324 9000ft 238kts
12-Feb-21 20:36 38.016026 -120.951027 324 8998ft 240kts
12-Feb-21 20:37 38.071826 -121.001442 323 8999ft 241kts
12-Feb-21 20:39 38.102592 -121.072000 290 9002ft 240kts
12-Feb-21 20:40 38.128762 -121.149626 294 8268ft 236kts
12-Feb-21 20:41 38.154704 -121.223821 294 6280ft 231kts
12-Feb-21 20:42 38.180491 -121.298438 293 4263ft 226kts
12-Feb-21 20:43 38.205209 -121.368381 293 4005ft 202kts
12-Feb-21 20:44 38.227729 -121.431505 293 4004ft 190kts
12-Feb-21 20:45 38.248884 -121.490522 293 3994ft 164kts
12-Feb-21 20:46 38.266800 -121.540306 293 4004ft 150kts
12-Feb-21 20:47 38.284796 -121.590155 293 3994ft 142kts
12-Feb-21 20:48 38.301085 -121.634420 293 2781ft 139kts
12-Feb-21 20:49 38.332782 -121.645491 32 1963ft 125kts
12-Feb-21 20:50 38.358147 -121.622583 31 2007ft 106kts
12-Feb-21 20:50 38.376910 -121.606936 31 2000ft 95kts
12-Feb-21 20:52 38.403632 -121.584821 31 2003ft 97kts
12-Feb-21 20:53 38.424892 -121.567231 31 1929ft 90kts
12-Feb-21 20:53 38.442038 -121.553066 31 1526ft 87kts
12-Feb-21 20:55 38.464897 -121.534143 35 1014ft 85kts
12-Feb-21 20:56 38.483924 -121.518419 35 550ft 83kts
12-Feb-21 20:56 38.499536 -121.505484 35 208ft 84kts
12-Feb-21 20:57 38.511363 -121.496820 275 26ft 5kts
12-Feb-21 20:58 38.511378 -121.497062 272 26ft 0kts
12-Feb-21 20:59 38.512029 -121.497416 32 26ft 5kts
12-Feb-21 21:00 38.513882 -121.496866 334 26ft 11kts
12-Feb-21 21:01 38.515081 -121.499079 12 26ft 0kts
12-Feb-21 21:02 38.515082 -121.499079 12 26ft 0kts
12-Feb-21 21:03 38.515081 -121.499079 12 26ft 0kts
12-Feb-21 21:04 38.515081 -121.499079 12 26ft 0kts

Navigation Log

Ident Type
Flight plan parsing failed, navigation log unavailable